Time;durP1;ratioP1;P1;durP2;ratioP2;P2;SDS_P1;SDS_P2;PMS_P1;PMS_P2;Temp;Humidity;BMP_temperature;BMP_pressure;BME280_temperature;BME280_humidity;BME280_pressure;Samples;Min_cycle;Max_cycle;Signal;HPM_P1;HPM_P2
2023/03/31 00:04:22;;;;;;;54.77;35.40;;;9.40;99.90;;;7.72;100.00;99711.31;10264006;28;96690;-84
2023/03/31 00:09:28;;;;;;;52.70;34.63;;;9.40;99.90;;;7.72;100.00;99708.66;10284278;28;96777;-84
2023/03/31 00:14:31;;;;;;;63.83;35.93;;;9.40;99.90;;;7.69;100.00;99702.88;10290956;28;97400;-84
2023/03/31 00:19:35;;;;;;;52.73;33.07;;;9.30;99.90;;;7.64;100.00;99695.44;10284604;28;99780;-84
2023/03/31 00:24:38;;;;;;;48.50;34.53;;;9.30;99.90;;;7.59;100.00;99695.06;10263906;28;96598;-84
2023/03/31 00:29:42;;;;;;;52.90;34.30;;;9.20;99.90;;;7.51;100.00;99689.78;10268101;28;96880;-84
2023/03/31 00:34:45;;;;;;;53.07;35.03;;;9.10;99.90;;;7.41;100.00;99684.59;10254179;28;96725;-84
2023/03/31 00:39:48;;;;;;;44.33;30.30;;;9.10;99.90;;;7.27;100.00;99692.34;10262845;28;98404;-84
2023/03/31 00:45:23;;;;;;;111.80;50.03;;;8.90;99.90;;;7.11;100.00;99679.88;10256536;28;96706;-85
2023/03/31 00:50:36;;;;;;;90.57;44.90;;;8.80;99.90;;;6.98;100.00;99691.69;10213756;28;96518;-85
2023/03/31 00:55:51;;;;;;;58.80;36.37;;;8.70;99.90;;;6.85;100.00;99671.97;10257507;28;96555;-83
2023/03/31 01:00:57;;;;;;;52.80;34.83;;;8.60;99.90;;;6.83;100.00;99666.00;10233303;28;97459;-83
2023/03/31 01:06:04;;;;;;;56.00;35.47;;;8.50;99.90;;;6.75;100.00;99655.41;10272855;28;96549;-83
2023/03/31 01:11:12;;;;;;;58.17;35.33;;;8.40;99.90;;;6.70;100.00;99661.16;10244787;28;96750;-83
2023/03/31 01:16:17;;;;;;;35.10;22.27;;;8.40;99.90;;;6.68;100.00;99652.56;10262793;28;96604;-84
2023/03/31 01:21:46;;;;;;;30.97;19.30;;;8.40;99.90;;;6.95;100.00;99662.09;10281103;28;96618;-83
2023/03/31 01:27:20;;;;;;;17.13;11.93;;;8.50;99.90;;;7.50;100.00;99653.75;10245117;28;96747;-83
2023/03/31 01:32:26;;;;;;;11.10;8.13;;;8.90;99.90;;;7.90;100.00;99660.09;10246885;28;96683;-82
2023/03/31 01:37:57;;;;;;;10.13;6.83;;;9.30;99.90;;;8.35;100.00;99654.31;10248671;28;96640;-82
2023/03/31 01:43:14;;;;;;;12.07;6.37;;;9.60;99.90;;;8.64;100.00;99661.78;10279130;28;96540;-83
2023/03/31 01:48:53;;;;;;;6.80;5.43;;;10.00;99.90;;;8.78;100.00;99660.25;10246369;28;96591;-83
2023/03/31 01:54:16;;;;;;;8.17;6.03;;;10.20;99.90;;;8.81;100.00;99658.06;10216162;28;98238;-83
2023/03/31 01:59:28;;;;;;;8.20;6.23;;;10.30;99.90;;;8.84;100.00;99656.91;10254878;28;96448;-83
2023/03/31 02:04:42;;;;;;;11.73;6.70;;;10.30;99.90;;;8.79;100.00;99662.72;10261272;28;98003;-83
2023/03/31 02:09:53;;;;;;;10.90;7.10;;;10.30;99.90;;;8.79;100.00;99656.59;10257977;28;96699;-83
2023/03/31 02:14:58;;;;;;;12.15;6.97;;;10.30;99.90;;;8.80;100.00;99658.25;10271726;28;98728;-82
2023/03/31 02:20:10;;;;;;;8.77;5.57;;;10.30;99.90;;;8.81;100.00;99651.94;10257843;28;97932;-83
2023/03/31 02:25:19;;;;;;;9.73;5.57;;;10.30;99.90;;;8.78;100.00;99637.22;10266806;28;96567;-82
2023/03/31 02:30:28;;;;;;;9.27;5.83;;;10.30;99.90;;;8.78;100.00;99628.44;10254683;28;96610;-82
2023/03/31 02:35:33;;;;;;;12.17;6.50;;;10.30;99.90;;;8.75;100.00;99636.72;10238208;28;96560;-83
2023/03/31 02:40:36;;;;;;;13.00;7.80;;;10.30;99.90;;;8.69;100.00;99617.03;10288637;28;97958;-83
2023/03/31 02:45:49;;;;;;;11.47;6.07;;;10.20;99.90;;;8.68;100.00;99615.38;10261019;28;98163;-83
2023/03/31 02:51:10;;;;;;;9.93;5.43;;;10.20;99.90;;;8.76;99.23;99618.03;10253240;28;97037;-83
2023/03/31 02:56:43;;;;;;;6.47;4.18;;;10.20;99.90;;;8.73;98.78;99613.06;10256563;28;96598;-82
2023/03/31 03:02:16;;;;;;;6.77;4.37;;;10.20;99.90;;;8.71;98.30;99612.41;10247621;28;97521;-82
2023/03/31 03:07:23;;;;;;;;;;;10.20;99.90;;;8.63;98.32;99617.72;10288376;28;96656;-85
2023/03/31 03:12:51;;;;;;;5.97;4.23;;;10.10;99.90;;;8.54;97.98;99624.03;10251565;28;97127;-87
2023/03/31 03:17:55;;;;;;;5.87;4.10;;;10.10;99.90;;;8.47;98.32;99609.81;10254073;28;98591;-87
2023/03/31 03:22:59;;;;;;;7.73;4.90;;;10.00;99.90;;;8.39;98.49;99608.00;10251346;28;96563;-88
2023/03/31 03:28:02;;;;;;;5.90;4.00;;;9.90;99.90;;;8.41;98.26;99624.56;10263127;28;96527;-88
2023/03/31 03:33:05;;;;;;;5.57;3.23;;;9.90;99.90;;;8.33;98.18;99627.16;10229273;28;96729;-88
2023/03/31 03:38:08;;;;;;;7.00;3.63;;;9.90;99.90;;;8.25;97.97;99637.78;10253673;28;96451;-88
2023/03/31 03:43:11;;;;;;;5.23;3.27;;;9.80;99.90;;;8.14;97.85;99633.63;10251562;28;96831;-89
2023/03/31 03:48:14;;;;;;;6.13;3.37;;;9.70;99.90;;;8.02;98.01;99641.09;10267943;28;97509;-93
2023/03/31 03:53:18;;;;;;;5.70;3.30;;;9.70;99.90;;;7.82;97.78;99642.41;10240091;28;96609;-92
2023/03/31 03:58:21;;;;;;;7.33;3.57;;;9.50;99.90;;;7.65;97.90;99644.19;10271241;28;97469;-93
2023/03/31 04:03:25;;;;;;;6.63;4.00;;;9.40;99.90;;;7.51;98.30;99656.22;10269955;28;98159;-92
2023/03/31 04:08:28;;;;;;;8.67;3.90;;;9.20;99.90;;;7.42;99.69;99632.56;10265804;28;98145;-88
2023/03/31 04:13:31;;;;;;;6.23;3.30;;;9.10;99.90;;;7.37;99.77;99624.28;10250954;28;96944;-88
2023/03/31 04:18:36;;;;;;;6.00;3.73;;;9.10;99.90;;;7.20;99.17;99632.19;10261625;28;97548;-88
2023/03/31 04:23:46;;;;;;;7.13;4.87;;;8.90;99.90;;;6.89;99.17;99618.66;10259443;28;96505;-89
2023/03/31 04:28:49;;;;;;;11.17;5.30;;;8.70;99.90;;;6.73;99.25;99625.69;10235486;28;96634;-85
2023/03/31 04:33:53;;;;;;;17.63;5.60;;;8.50;99.90;;;6.53;99.41;99622.44;10282438;28;96679;-84
2023/03/31 04:38:57;;;;;;;9.97;4.77;;;8.30;99.90;;;6.33;99.69;99624.47;10278724;28;97529;-84
2023/03/31 04:44:00;;;;;;;12.10;5.37;;;8.20;99.90;;;6.21;100.00;99620.41;10242622;28;96570;-85
2023/03/31 04:49:04;;;;;;;8.50;6.73;;;8.00;99.90;;;6.08;100.00;99621.63;10214720;28;96704;-84
2023/03/31 04:54:07;;;;;;;8.93;6.37;;;7.90;99.90;;;6.03;100.00;99623.91;10245943;28;96682;-84
2023/03/31 04:59:11;;;;;;;8.20;6.17;;;7.80;99.90;;;6.01;100.00;99625.88;10242311;28;96631;-84
2023/03/31 05:04:14;;;;;;;9.23;6.77;;;7.70;99.90;;;6.08;100.00;99621.63;10248551;28;96653;-84
2023/03/31 05:09:17;;;;;;;14.17;9.23;;;7.80;99.90;;;6.14;100.00;99614.94;10259038;28;96949;-84
2023/03/31 05:14:20;;;;;;;14.30;8.63;;;7.80;99.90;;;6.23;100.00;99613.97;10249215;28;97467;-84
2023/03/31 05:19:24;;;;;;;10.23;7.03;;;7.90;99.90;;;6.32;100.00;99602.53;10241918;28;97457;-84
2023/03/31 05:24:28;;;;;;;12.73;8.37;;;7.90;99.90;;;6.47;100.00;99609.84;10225499;28;97610;-84
2023/03/31 05:29:31;;;;;;;13.30;10.13;;;8.10;99.90;;;6.62;100.00;99605.66;10239941;28;97715;-84
2023/03/31 05:34:35;;;;;;;12.30;9.50;;;8.20;99.90;;;6.82;100.00;99606.25;10260827;28;96663;-84
2023/03/31 05:39:38;;;;;;;8.90;7.00;;;8.40;99.90;;;7.06;100.00;99616.09;10247892;28;96472;-83
2023/03/31 05:44:41;;;;;;;7.33;6.00;;;8.60;99.90;;;7.33;100.00;99607.13;10279359;28;96551;-83
2023/03/31 05:49:44;;;;;;;8.63;5.77;;;8.90;99.90;;;7.65;100.00;99599.22;10234717;28;97019;-83
2023/03/31 05:54:47;;;;;;;7.40;4.33;;;9.20;99.90;;;8.04;100.00;99586.19;10249280;28;96436;-83
2023/03/31 05:59:50;;;;;;;4.50;3.10;;;9.50;99.90;;;8.50;100.00;99581.16;10264140;28;96572;-83
2023/03/31 06:04:57;;;;;;;4.97;2.90;;;9.90;99.90;;;8.96;100.00;99580.53;10210772;28;96805;-83
2023/03/31 06:10:01;;;;;;;7.90;4.10;;;10.30;99.90;;;9.36;100.00;99563.59;10226210;28;96572;-83
2023/03/31 06:15:04;;;;;;;7.33;3.83;;;10.70;99.90;;;9.79;100.00;99567.44;10262218;28;96694;-83
2023/03/31 06:20:08;;;;;;;5.63;2.70;;;11.20;99.90;;;10.19;100.00;99566.25;10288004;28;96716;-83
2023/03/31 06:25:29;;;;;;;5.85;2.65;;;11.50;99.90;;;10.51;99.87;99566.13;10290256;28;96393;-84
2023/03/31 06:30:46;;;;;;;7.70;3.33;;;11.90;99.90;;;10.78;93.05;99562.81;10287765;28;96498;-84
2023/03/31 06:35:49;;;;;;;5.77;3.60;;;12.20;99.90;;;11.05;88.80;99563.97;10288640;28;96500;-83
2023/03/31 06:40:53;;;;;;;7.17;3.03;;;12.40;99.90;;;11.21;87.12;99557.59;10262710;28;96561;-84
2023/03/31 06:45:56;;;;;;;2.80;2.00;;;12.60;99.90;;;11.32;84.31;99564.25;10281275;28;96557;-84
2023/03/31 06:51:01;;;;;;;4.47;1.83;;;12.70;99.90;;;11.40;83.46;99554.34;10293364;28;96421;-83
2023/03/31 06:56:06;;;;;;;5.73;2.20;;;12.80;99.90;;;11.60;82.31;99551.06;10296045;28;96473;-83
2023/03/31 07:01:10;;;;;;;2.97;1.80;;;13.00;99.90;;;11.81;79.57;99548.41;10287658;28;96487;-83
2023/03/31 07:06:14;;;;;;;3.97;1.90;;;13.20;99.90;;;11.99;79.38;99546.09;10252589;28;96567;-83
2023/03/31 07:11:17;;;;;;;4.30;2.33;;;13.40;99.90;;;12.16;78.07;99551.97;10281018;28;97001;-83
2023/03/31 07:16:23;;;;;;;3.17;1.97;;;13.60;99.90;;;12.37;76.15;99547.63;10280161;28;96825;-83
2023/03/31 07:21:26;;;;;;;3.63;2.00;;;13.80;99.90;;;12.55;74.55;99530.09;10253173;28;96590;-83
2023/03/31 07:26:29;;;;;;;6.20;2.20;;;14.00;99.90;;;12.75;73.65;99529.38;10254263;28;96493;-83
2023/03/31 07:31:32;;;;;;;4.57;2.03;;;14.20;99.90;;;12.81;72.73;99517.91;10278559;28;96582;-83
2023/03/31 07:36:35;;;;;;;8.47;3.90;;;14.20;99.90;;;12.99;72.80;99510.19;10291678;28;96467;-83
2023/03/31 07:41:38;;;;;;;4.80;2.13;;;14.40;99.90;;;13.24;71.83;99515.81;10258812;28;96442;-83
2023/03/31 07:46:42;;;;;;;4.80;2.15;;;14.70;99.90;;;13.45;69.04;99514.84;10259689;28;98969;-82
2023/03/31 07:51:45;;;;;;;5.80;1.90;;;14.90;99.90;;;13.78;68.09;99492.69;10253834;28;96505;-83
2023/03/31 07:56:48;;;;;;;4.10;1.88;;;15.20;99.90;;;14.33;67.42;99487.88;10248132;28;96524;-83
2023/03/31 08:01:51;;;;;;;3.47;1.63;;;15.70;99.90;;;14.85;64.72;99481.56;10256699;28;97583;-83
2023/03/31 08:06:54;;;;;;;3.85;1.40;;;16.10;99.90;;;15.58;62.51;99473.09;10278035;28;97357;-83
2023/03/31 08:11:57;;;;;;;6.15;1.60;;;16.50;99.40;;;16.00;60.04;99465.34;10290907;28;96566;-82
2023/03/31 08:17:00;;;;;;;3.72;1.70;;;17.00;97.40;;;16.14;56.87;99452.66;10289977;28;96486;-82
2023/03/31 08:22:04;;;;;;;2.10;1.10;;;17.10;95.90;;;16.15;56.60;99447.06;10277205;28;97515;-82
2023/03/31 08:27:07;;;;;;;3.80;1.48;;;17.30;93.80;;;16.42;58.00;99444.88;10276761;28;96554;-83
2023/03/31 08:32:14;;;;;;;3.25;1.40;;;17.40;93.90;;;17.03;56.02;99429.69;10263624;28;96620;-83
2023/03/31 08:37:17;;;;;;;3.80;1.48;;;17.70;93.90;;;17.30;53.21;99424.75;10251561;28;96433;-83
2023/03/31 08:42:36;;;;;;;2.58;1.00;;;18.00;92.40;;;17.36;52.41;99411.22;10252100;28;96378;-83
2023/03/31 08:47:40;;;;;;;2.38;1.10;;;18.30;91.00;;;17.43;52.59;99402.22;10242787;28;96523;-83
2023/03/31 08:53:34;;;;;;;5.13;1.35;;;18.60;90.20;;;17.99;49.87;99393.63;10292692;28;96594;-83
2023/03/31 08:58:47;;;;;;;2.42;1.05;;;18.80;88.10;;;18.36;46.88;99385.25;10270010;28;96831;-82
2023/03/31 09:04:18;;;;;;;3.13;1.00;;;19.10;82.90;;;18.56;46.31;99377.59;10244988;28;96512;-83
2023/03/31 09:09:40;;;;;;;;;;;19.10;80.00;;;18.40;46.18;99371.06;10250316;28;96530;-83
2023/03/31 09:15:00;;;;;;;2.03;0.90;;;19.10;77.00;;;18.35;46.78;99357.56;10291671;28;96548;-83
2023/03/31 09:20:19;;;;;;;1.98;1.10;;;19.30;78.50;;;18.70;47.32;99354.72;10273338;28;96680;-83
2023/03/31 09:25:35;;;;;;;6.68;2.20;;;19.80;78.70;;;19.33;49.37;99339.38;10285004;28;96468;-83
2023/03/31 09:30:41;;;;;;;8.48;3.10;;;20.60;80.60;;;20.72;49.08;99337.41;10285125;28;97278;-84
2023/03/31 09:35:45;;;;;;;9.07;4.15;;;21.80;81.00;;;21.22;44.90;99333.53;10290971;28;96595;-84
2023/03/31 09:40:49;;;;;;;8.35;3.40;;;22.40;75.20;;;21.62;45.85;99320.34;10263058;28;96918;-83
2023/03/31 09:45:53;;;;;;;10.98;4.35;;;22.70;74.90;;;22.29;44.96;99299.00;10285414;28;96826;-83
2023/03/31 09:51:23;;;;;;;8.68;3.30;;;23.20;73.90;;;22.67;42.22;99300.44;10275763;28;97402;-84
2023/03/31 09:56:41;;;;;;;48.20;14.30;;;23.70;67.70;;;22.68;42.58;99281.22;10272352;28;96683;-84
2023/03/31 10:01:49;;;;;;;17.90;6.33;;;23.80;69.50;;;23.11;42.20;99279.09;10254092;28;96718;-84
2023/03/31 10:06:55;;;;;;;7.43;3.43;;;24.10;67.90;;;23.27;40.39;99266.34;10250987;28;96727;-84
2023/03/31 10:12:19;;;;;;;16.65;5.32;;;24.50;66.40;;;23.15;39.66;99246.81;10282391;28;97051;-85
2023/03/31 10:17:26;;;;;;;12.77;4.18;;;24.30;63.20;;;22.58;39.76;99243.31;10269623;28;96974;-84
2023/03/31 10:22:31;;;;;;;10.05;2.97;;;24.00;61.80;;;22.26;42.11;99243.53;10296995;28;96473;-84
2023/03/31 10:27:38;;;;;;;20.33;5.50;;;23.60;64.10;;;22.52;40.06;99238.97;10302579;28;96511;-84
2023/03/31 10:32:42;;;;;;;5.97;1.38;;;23.60;62.40;;;22.50;38.32;99230.31;10261518;28;96596;-84
2023/03/31 10:37:49;;;;;;;4.53;1.80;;;23.80;60.30;;;22.20;36.19;99224.84;10290267;28;97528;-84
2023/03/31 10:43:23;;;;;;;2.38;1.42;;;23.80;57.50;;;21.65;39.54;99229.75;10281052;28;96414;-83
2023/03/31 10:48:32;;;;;;;4.38;1.85;;;23.70;57.30;;;22.22;39.37;99217.28;10202330;28;96621;-84
2023/03/31 10:53:50;;;;;;;5.78;2.50;;;23.80;58.80;;;22.88;36.02;99217.34;10291082;28;97419;-83
2023/03/31 11:00:00;;;;;;;4.50;1.20;;;24.40;55.90;;;22.41;36.23;99204.84;10266868;28;98201;-83
2023/03/31 11:05:30;;;;;;;2.72;1.50;;;24.40;54.90;;;23.00;37.40;99206.22;10258236;28;96709;-84
2023/03/31 11:10:50;;;;;;;18.38;8.43;;;24.70;55.70;;;23.33;34.29;99199.34;10270479;28;96402;-84
2023/03/31 11:16:29;;;;;;;6.13;2.67;;;25.10;53.00;;;22.02;36.93;99201.78;10278259;28;96576;-83
2023/03/31 11:22:39;;;;;;;60.42;16.52;;;24.30;53.60;;;21.60;38.91;99205.44;10294446;28;96413;-83
2023/03/31 11:27:54;;;;;;;3.40;1.80;;;23.40;55.70;;;20.74;40.42;99184.91;10240298;28;96680;-83
2023/03/31 11:33:37;;;;;;;26.17;7.95;;;22.80;56.80;;;20.65;40.90;99167.56;10291847;28;96425;-83
2023/03/31 11:38:40;;;;;;;11.30;4.20;;;22.30;58.30;;;20.29;42.59;99145.66;10279014;28;96573;-83
2023/03/31 11:44:02;;;;;;;39.75;10.77;;;21.80;59.50;;;19.78;43.40;99131.69;10275938;28;96471;-82
2023/03/31 11:49:27;;;;;;;19.35;6.78;;;21.30;60.70;;;19.55;44.65;99117.66;10280482;28;96580;-83
2023/03/31 11:54:45;;;;;;;12.63;4.32;;;21.00;62.00;;;19.77;44.11;99129.25;10292343;28;96533;-83
2023/03/31 12:00:15;;;;;;;9.32;2.83;;;21.30;62.30;;;20.37;45.61;99105.78;10269704;28;96671;-83
2023/03/31 12:05:20;;;;;;;;;;;21.90;63.10;;;21.19;42.20;99085.53;10269787;28;96553;-84
2023/03/31 12:10:37;;;;;;;4.75;1.80;;;22.90;60.60;;;21.95;38.12;99080.34;10236266;28;96805;-83
2023/03/31 12:15:47;;;;;;;3.38;1.77;;;23.70;57.70;;;21.65;39.03;99075.66;10274767;28;96551;-83
2023/03/31 12:20:55;;;;;;;3.65;1.40;;;23.70;56.20;;;21.33;39.54;99071.25;10272056;28;98061;-83
2023/03/31 12:26:25;;;;;;;3.05;1.27;;;23.20;56.80;;;20.79;40.23;99070.72;10254451;28;96629;-83
2023/03/31 12:31:31;;;;;;;;;;;22.60;57.70;;;20.55;42.27;99059.53;10251974;28;98367;-83
2023/03/31 12:36:46;;;;;;;5.75;2.63;;;22.20;58.80;;;20.68;42.16;99044.75;10236249;28;96577;-84
2023/03/31 12:42:13;;;;;;;8.60;3.70;;;22.20;59.10;;;21.09;42.83;99041.16;10270563;28;96771;-83
2023/03/31 12:47:41;;;;;;;11.77;3.90;;;22.60;60.00;;;21.75;41.51;99024.31;10292239;28;96436;-84
2023/03/31 12:53:04;;;;;;;4.28;2.08;;;23.40;59.60;;;22.24;40.69;99007.56;10261159;28;96559;-85
2023/03/31 12:58:26;;;;;;;4.90;2.10;;;24.10;58.10;;;22.18;38.99;98995.94;10260948;28;96644;-84
2023/03/31 13:03:36;;;;;;;2.85;1.42;;;24.30;56.30;;;21.36;40.33;99002.38;10280549;28;97364;-82
2023/03/31 13:09:26;;;;;;;1.83;1.38;;;23.50;56.30;;;20.49;42.39;98995.81;10255843;28;97632;-84
2023/03/31 13:14:39;;;;;;;16.42;6.20;;;22.50;57.40;;;20.21;43.72;98970.81;10239730;28;96764;-81
2023/03/31 13:19:42;;;;;;;5.65;2.60;;;21.90;59.70;;;19.93;44.12;98969.28;10253609;28;98295;-84
2023/03/31 13:24:45;;;;;;;9.55;5.72;;;21.80;60.20;;;19.53;43.97;98957.06;10267676;28;97498;-82
2023/03/31 13:29:48;;;;;;;128.43;86.80;;;21.40;60.40;;;19.40;45.90;98946.72;10258317;28;96877;-82
2023/03/31 13:35:03;;;;;;;12.18;7.70;;;21.00;62.00;;;19.07;46.44;98931.59;10245086;28;98522;-82
2023/03/31 13:40:47;;;;;;;8.57;5.38;;;20.70;63.00;;;18.71;46.87;98939.28;10247947;28;98950;-82
2023/03/31 13:45:57;;;;;;;10.50;7.68;;;20.20;63.50;;;18.35;46.36;98924.56;10251636;28;97423;-81
2023/03/31 13:51:33;;;;;;;14.67;7.47;;;19.90;63.30;;;18.27;46.09;98911.50;10263758;28;96572;-82
2023/03/31 13:57:13;;;;;;;5.32;2.38;;;19.70;63.20;;;18.33;47.04;98904.31;10253074;28;96849;-80
2023/03/31 14:02:44;;;;;;;6.35;4.22;;;19.70;64.00;;;18.21;46.51;98899.06;10255766;28;96660;-81
2023/03/31 14:08:45;;;;;;;8.00;3.75;;;19.60;63.80;;;17.98;47.89;98896.59;10258912;28;96818;-81
2023/03/31 14:14:14;;;;;;;7.75;4.13;;;19.40;65.10;;;17.74;48.47;98891.41;10180858;28;96618;-81
2023/03/31 14:19:23;;;;;;;3.75;1.60;;;19.10;65.70;;;17.48;49.55;98884.81;10260658;28;96611;-80
2023/03/31 14:24:43;;;;;;;6.70;1.53;;;18.90;66.50;;;17.29;50.58;98846.66;10252468;28;99040;-81
2023/03/31 14:30:17;;;;;;;4.53;1.77;;;18.70;67.50;;;17.52;50.78;98834.13;10243397;28;97007;-81
2023/03/31 14:36:20;;;;;;;3.28;2.20;;;18.90;68.10;;;18.20;49.95;98824.84;10240880;28;96613;-81
2023/03/31 14:41:28;;;;;;;4.82;2.70;;;19.70;67.80;;;18.50;48.39;98819.00;10174053;28;96816;-81
2023/03/31 14:46:37;;;;;;;12.30;9.02;;;20.10;66.00;;;18.87;47.39;98805.66;10245337;28;99151;-81
2023/03/31 14:51:44;;;;;;;35.60;24.33;;;20.50;64.50;;;19.07;45.34;98785.38;10280624;28;96800;-89
2023/03/31 14:56:53;;;;;;;12.25;8.68;;;20.90;62.40;;;18.95;45.87;98789.06;10254688;28;97340;-88
2023/03/31 15:01:58;;;;;;;;;;;20.70;62.20;;;19.07;44.78;98785.38;10278271;28;96699;-89
2023/03/31 15:07:03;;;;;;;3.78;1.52;;;20.90;61.30;;;19.10;43.95;98795.63;10274475;28;96509;-85
2023/03/31 15:12:13;;;;;;;5.88;2.33;;;21.10;59.70;;;19.02;43.84;98788.03;10264844;28;97814;-87
2023/03/31 15:17:26;;;;;;;;;;;21.00;59.80;;;18.86;43.75;98789.78;10247891;28;97397;-83
2023/03/31 15:22:29;;;;;;;7.45;3.25;;;20.80;59.80;;;18.49;44.62;98779.72;10244225;28;97484;-83
2023/03/31 15:27:46;;;;;;;9.77;4.80;;;20.40;60.30;;;18.17;45.44;98771.56;10256244;28;96560;-83
2023/03/31 15:32:50;;;;;;;5.30;1.90;;;20.00;61.60;;;17.79;46.74;98757.16;10268949;28;96700;-83
2023/03/31 15:37:59;;;;;;;8.85;3.35;;;19.50;62.90;;;17.54;47.71;98751.44;10241025;28;96708;-83
2023/03/31 15:43:43;;;;;;;5.50;2.08;;;19.10;64.20;;;17.23;48.80;98739.44;10281439;28;97245;-82
2023/03/31 15:48:54;;;;;;;5.65;1.80;;;18.80;65.20;;;17.06;49.90;98723.38;10264582;28;96708;-82
2023/03/31 15:53:57;;;;;;;10.10;2.70;;;18.50;66.30;;;16.87;49.72;98728.19;10252410;28;96588;-82
2023/03/31 15:59:05;;;;;;;8.32;2.33;;;18.30;66.70;;;16.65;50.31;98725.38;10281861;28;97438;-81
2023/03/31 16:04:14;;;;;;;5.95;2.10;;;18.10;67.10;;;16.47;50.77;98720.22;10286466;28;96613;-82
2023/03/31 16:09:50;;;;;;;6.30;2.33;;;17.80;67.80;;;16.33;51.49;98728.59;10250979;28;98129;-82
2023/03/31 16:15:04;;;;;;;5.38;2.20;;;17.70;68.70;;;16.20;51.32;98730.75;10279915;28;96976;-82
2023/03/31 16:20:27;;;;;;;3.90;1.90;;;17.60;68.50;;;16.10;50.70;98735.91;10273755;28;96599;-82
2023/03/31 16:25:31;;;;;;;7.45;3.13;;;17.50;68.10;;;15.98;51.50;98738.63;10244473;28;96561;-82
2023/03/31 16:30:40;;;;;;;4.18;2.05;;;17.40;68.60;;;15.84;52.29;98759.53;10251795;28;96489;-82
2023/03/31 16:35:52;;;;;;;4.43;2.17;;;17.20;69.30;;;15.64;53.17;98759.91;10232579;28;96483;-82
2023/03/31 16:40:57;;;;;;;3.75;1.90;;;17.10;70.20;;;15.42;53.71;98782.97;10266200;28;98381;-82
2023/03/31 16:46:02;;;;;;;7.13;2.22;;;16.90;70.80;;;15.24;54.62;98787.38;10272438;28;96796;-81
2023/03/31 16:51:05;;;;;;;4.95;2.25;;;16.60;71.60;;;15.09;55.41;98789.69;10256656;28;96720;-81
2023/03/31 16:56:10;;;;;;;3.63;1.92;;;16.50;72.60;;;14.96;56.46;98797.94;10281762;28;97666;-82
2023/03/31 17:01:13;;;;;;;3.20;1.50;;;16.30;73.60;;;14.82;57.17;98792.00;10290726;28;96564;-81
2023/03/31 17:06:17;;;;;;;7.40;1.63;;;16.20;74.60;;;14.66;57.73;98757.88;10284165;28;98483;-81
2023/03/31 17:11:21;;;;;;;2.95;1.42;;;16.10;75.30;;;14.52;58.57;98751.94;10287317;28;96989;-81
2023/03/31 17:16:25;;;;;;;3.28;1.70;;;15.90;75.90;;;14.39;59.12;98741.38;10278711;28;96652;-80
2023/03/31 17:21:46;;;;;;;3.92;1.80;;;15.80;76.70;;;14.29;59.43;98747.28;10248657;28;97211;-80
2023/03/31 17:26:49;;;;;;;5.57;1.48;;;15.70;77.20;;;14.17;60.25;98749.91;10248483;28;99259;-80
2023/03/31 17:31:52;;;;;;;4.05;1.60;;;15.60;77.80;;;14.14;60.58;98749.53;10261423;28;97181;-81
2023/03/31 17:36:56;;;;;;;3.80;1.70;;;15.50;78.20;;;14.04;61.24;98743.94;10270914;28;97577;-81
2023/03/31 17:41:59;;;;;;;3.05;1.40;;;15.40;78.90;;;13.96;61.79;98745.03;10266624;28;98825;-81
2023/03/31 17:47:02;;;;;;;4.05;1.77;;;15.30;79.60;;;13.89;61.67;98753.16;10260433;28;96445;-81
2023/03/31 17:52:05;;;;;;;2.72;1.30;;;15.20;79.80;;;13.87;62.18;98744.56;10247287;28;98072;-80
2023/03/31 17:57:08;;;;;;;4.13;1.90;;;15.20;80.10;;;13.83;63.04;98754.03;10232002;28;98570;-86
2023/03/31 18:02:12;;;;;;;2.93;1.80;;;15.20;80.80;;;13.70;64.51;98746.19;10269529;28;98399;-86
2023/03/31 18:07:17;;;;;;;5.43;1.60;;;15.00;82.20;;;13.53;65.53;98763.84;10281937;28;96490;-87
2023/03/31 18:12:20;;;;;;;3.93;1.53;;;14.80;83.50;;;13.36;66.64;98780.41;10268497;28;98652;-86
2023/03/31 18:17:23;;;;;;;3.05;1.60;;;14.70;84.90;;;13.26;67.19;98753.44;10252025;28;96502;-87
2023/03/31 18:22:27;;;;;;;6.93;2.00;;;14.60;85.70;;;13.17;68.36;98748.56;10270229;28;98673;-88
2023/03/31 18:27:30;;;;;;;5.40;1.80;;;14.50;86.80;;;13.04;69.32;98755.66;10245797;28;98673;-86
2023/03/31 18:32:34;;;;;;;4.33;2.30;;;14.40;88.10;;;12.90;71.86;98777.34;10240172;28;97677;-87
2023/03/31 18:37:38;;;;;;;4.30;2.67;;;14.30;90.20;;;12.59;75.68;98802.94;10246720;28;96583;-86
2023/03/31 18:42:41;;;;;;;7.17;3.30;;;14.00;93.10;;;12.28;78.95;98814.41;10216314;28;96974;-88
2023/03/31 18:47:44;;;;;;;6.50;3.10;;;13.60;96.80;;;11.99;80.35;98826.41;10247661;28;97724;-88
2023/03/31 18:52:50;;;;;;;4.10;2.73;;;13.30;99.90;;;11.76;82.61;98830.34;10249059;28;98235;-90
2023/03/31 18:57:53;;;;;;;6.30;3.27;;;13.10;99.90;;;11.55;84.38;98825.25;10272645;28;96567;-92
2023/03/31 19:02:56;;;;;;;7.67;3.70;;;12.90;99.90;;;11.37;86.18;98823.22;10249749;28;97817;-92
2023/03/31 19:08:00;;;;;;;7.70;3.67;;;12.80;99.90;;;11.28;88.10;98845.75;10283289;28;97986;-91
2023/03/31 19:13:04;;;;;;;7.00;4.30;;;12.60;99.90;;;11.15;88.79;98837.75;10262696;28;98388;-90
2023/03/31 19:18:11;;;;;;;6.73;4.30;;;12.60;99.90;;;11.06;89.34;98833.69;10256391;28;96564;-87
2023/03/31 19:23:14;;;;;;;7.90;3.77;;;12.40;99.90;;;10.93;87.45;98835.31;10279785;28;96725;-90
2023/03/31 19:28:17;;;;;;;5.27;2.87;;;12.30;99.90;;;10.76;86.79;98828.75;10277504;28;96727;-88
2023/03/31 19:33:22;;;;;;;4.97;3.30;;;12.20;99.90;;;10.63;85.95;98828.72;10251376;28;96797;-89
2023/03/31 19:38:25;;;;;;;5.00;1.70;;;12.00;99.90;;;10.51;84.27;98827.69;10247724;28;96652;-88
2023/03/31 19:43:29;;;;;;;3.67;1.40;;;11.90;99.90;;;10.41;83.75;98817.44;10270281;28;97919;-91
2023/03/31 19:48:32;;;;;;;3.93;1.50;;;11.80;99.90;;;10.36;81.89;98825.19;10227260;28;97284;-89
2023/03/31 19:53:37;;;;;;;3.23;1.00;;;11.70;99.90;;;10.29;80.14;98813.72;10230679;28;97413;-84
2023/03/31 19:58:41;;;;;;;3.73;0.83;;;11.70;99.90;;;10.27;78.83;98821.91;10259115;28;96728;-83
2023/03/31 20:03:44;;;;;;;2.73;1.10;;;11.70;99.90;;;10.15;79.70;98815.50;10232910;28;98662;-86
2023/03/31 20:08:54;;;;;;;3.20;1.30;;;11.60;99.90;;;10.01;80.92;98829.72;10258048;28;96678;-84
2023/03/31 20:13:58;;;;;;;3.43;1.50;;;11.40;99.90;;;9.79;82.05;98823.69;10268860;28;98235;-84
2023/03/31 20:19:04;;;;;;;1.80;0.83;;;11.20;99.90;;;9.56;84.42;98819.50;10275478;28;97354;-83
2023/03/31 20:24:22;;;;;;;1.77;0.98;;;11.10;99.90;;;9.38;86.12;98816.50;10606065;27;97093;-84
2023/03/31 20:29:26;;;;;;;3.00;1.50;;;10.80;99.90;;;9.25;87.15;98805.81;10536931;27;96725;-83
2023/03/31 20:34:29;;;;;;;1.93;1.10;;;10.70;99.90;;;9.13;88.39;98802.06;10525092;27;96747;-83
2023/03/31 20:39:32;;;;;;;2.23;1.20;;;10.60;99.90;;;9.03;89.08;98799.75;10560033;27;97288;-83
2023/03/31 20:44:36;;;;;;;3.13;1.00;;;10.50;99.90;;;8.95;89.71;98800.72;10523140;27;96565;-83
2023/03/31 20:49:39;;;;;;;1.80;0.70;;;10.40;99.90;;;8.88;90.54;98791.88;10516448;27;98408;-82
2023/03/31 20:54:43;;;;;;;3.73;1.00;;;10.30;99.90;;;8.84;91.07;98786.13;10537702;27;96753;-83
2023/03/31 20:59:46;;;;;;;2.17;0.83;;;10.30;99.90;;;8.81;90.94;98778.56;10536286;27;96920;-83
2023/03/31 21:04:49;;;;;;;3.63;1.30;;;10.20;99.90;;;8.80;91.25;98773.47;10533820;27;98792;-83
2023/03/31 21:09:53;;;;;;;3.93;1.13;;;10.20;99.90;;;8.75;91.92;98749.38;10509983;27;96631;-84
2023/03/31 21:14:56;;;;;;;2.13;0.90;;;10.20;99.90;;;8.70;92.59;98746.50;10505449;27;96567;-84
2023/03/31 21:19:59;;;;;;;2.97;0.83;;;10.20;99.90;;;8.64;93.43;98747.28;10523295;27;98645;-84
2023/03/31 21:25:05;;;;;;;2.33;0.90;;;10.10;99.90;;;8.63;93.94;98737.66;10506570;27;96663;-84
2023/03/31 21:30:09;;;;;;;3.77;1.00;;;10.10;99.90;;;8.68;92.86;98730.78;10521318;27;97242;-85
2023/03/31 21:35:12;;;;;;;3.13;1.20;;;10.10;99.90;;;8.73;92.65;98733.69;10501121;27;97460;-85
2023/03/31 21:40:15;;;;;;;2.47;1.37;;;10.20;99.90;;;8.77;92.47;98728.84;10508642;27;96490;-85